createdAt,value
2018-03-08T00:00:42.481Z,58.30
2018-03-08T00:03:10.970Z,58.60
2018-03-08T00:05:38.600Z,58.40
2018-03-08T00:08:06.412Z,59.10
2018-03-08T00:10:33.995Z,59.00
2018-03-08T00:13:02.338Z,59.80
2018-03-08T00:15:29.928Z,59.80
2018-03-08T00:17:57.530Z,59.90
2018-03-08T00:20:25.114Z,60.10
2018-03-08T00:22:52.719Z,60.60
2018-03-08T00:25:20.287Z,61.20
2018-03-08T00:27:47.838Z,61.10
2018-03-08T00:30:15.402Z,61.30
2018-03-08T00:32:43.159Z,61.90
2018-03-08T00:35:10.747Z,61.20
2018-03-08T00:37:39.075Z,62.40
2018-03-08T00:40:06.627Z,62.00
2018-03-08T00:42:35.104Z,60.80
2018-03-08T00:45:02.706Z,60.80
2018-03-08T00:47:30.277Z,60.90
2018-03-08T00:49:57.904Z,59.80
2018-03-08T00:52:26.243Z,59.40
2018-03-08T00:54:53.797Z,59.40
2018-03-08T00:57:21.643Z,59.20
2018-03-08T00:59:49.210Z,59.10
2018-03-08T01:02:16.769Z,59.00
2018-03-08T01:04:44.348Z,58.80
2018-03-08T01:07:11.898Z,58.80
2018-03-08T01:09:40.241Z,58.60
2018-03-08T01:12:07.824Z,58.60
2018-03-08T01:14:36.176Z,59.10
2018-03-08T01:17:03.804Z,58.50
2018-03-08T01:19:31.365Z,58.40
2018-03-08T01:21:59.822Z,58.20
2018-03-08T01:24:27.371Z,58.30
2018-03-08T01:26:54.917Z,58.20
2018-03-08T01:29:22.672Z,58.30
2018-03-08T01:31:50.211Z,58.30
2018-03-08T01:34:18.576Z,58.30
2018-03-08T01:36:46.136Z,58.30
2018-03-08T01:39:13.697Z,58.20
2018-03-08T01:41:41.262Z,58.20
2018-03-08T01:44:08.836Z,58.30
2018-03-08T01:46:36.427Z,58.20
2018-03-08T01:49:04.753Z,58.20
2018-03-08T01:51:32.308Z,58.20
2018-03-08T01:53:59.873Z,58.20
2018-03-08T01:56:28.210Z,58.20
2018-03-08T01:58:56.562Z,58.20
2018-03-08T02:01:24.117Z,58.20
2018-03-08T02:03:51.697Z,58.20
2018-03-08T02:06:19.252Z,58.10
2018-03-08T02:08:46.805Z,58.10
2018-03-08T02:11:14.404Z,58.80
2018-03-08T02:13:41.950Z,58.10
2018-03-08T02:16:09.512Z,58.10
2018-03-08T02:18:37.071Z,58.20
2018-03-08T02:21:04.627Z,58.10
2018-03-08T02:23:32.220Z,58.20
2018-03-08T02:25:59.944Z,58.10
2018-03-08T02:28:27.502Z,58.00
2018-03-08T02:30:55.080Z,58.10
2018-03-08T02:33:22.634Z,58.10
2018-03-08T02:35:50.267Z,58.10
2018-03-08T02:38:17.828Z,58.10
2018-03-08T02:40:45.406Z,58.00
2018-03-08T02:43:13.071Z,58.10
2018-03-08T02:45:40.631Z,58.10
2018-03-08T02:48:08.236Z,58.60
2018-03-08T02:50:36.551Z,58.10
2018-03-08T02:53:04.128Z,58.10
2018-03-08T02:55:31.699Z,58.10
2018-03-08T02:57:59.263Z,58.00
2018-03-08T03:00:26.846Z,58.00
2018-03-08T03:02:54.513Z,58.10
2018-03-08T03:05:22.107Z,58.10
2018-03-08T03:07:50.414Z,58.10
2018-03-08T03:10:17.981Z,58.10
2018-03-08T03:12:45.744Z,58.00
2018-03-08T03:15:13.310Z,58.10
2018-03-08T03:17:40.871Z,58.10
2018-03-08T03:20:08.492Z,58.10
2018-03-08T03:22:36.050Z,58.10
2018-03-08T03:25:03.628Z,58.10
2018-03-08T03:27:31.332Z,58.10
2018-03-08T03:29:58.895Z,58.10
2018-03-08T03:32:26.523Z,58.10
2018-03-08T03:34:54.153Z,58.00
2018-03-08T03:37:21.746Z,58.00
2018-03-08T03:39:49.307Z,58.20
2018-03-08T03:42:16.878Z,58.30
2018-03-08T03:44:44.432Z,58.30
2018-03-08T03:47:11.993Z,58.40
2018-03-08T03:49:39.604Z,58.30
2018-03-08T03:52:07.182Z,58.40
2018-03-08T03:54:35.511Z,58.50
2018-03-08T03:57:03.082Z,58.40
2018-03-08T03:59:30.640Z,58.40
2018-03-08T04:01:58.227Z,58.50
2018-03-08T04:04:25.895Z,58.40
2018-03-08T04:06:53.474Z,58.40
2018-03-08T04:09:21.030Z,58.40
2018-03-08T04:11:48.589Z,58.50
2018-03-08T04:14:16.166Z,58.50
2018-03-08T04:16:43.748Z,58.50
2018-03-08T04:19:11.299Z,58.60
2018-03-08T04:21:38.861Z,58.50
2018-03-08T04:24:06.426Z,58.50
2018-03-08T04:26:34.031Z,58.50
2018-03-08T04:29:02.349Z,58.40
2018-03-08T04:31:29.898Z,58.40
2018-03-08T04:33:57.458Z,58.50
2018-03-08T04:36:25.019Z,58.60
2018-03-08T04:38:52.608Z,58.50
2018-03-08T04:41:20.189Z,59.20
2018-03-08T04:43:47.752Z,58.70
2018-03-08T04:46:15.321Z,58.60
2018-03-08T04:48:42.927Z,58.60
2018-03-08T04:51:11.266Z,58.60
2018-03-08T04:53:38.830Z,58.60
2018-03-08T04:56:06.389Z,58.60
2018-03-08T04:58:34.028Z,58.70
2018-03-08T05:01:01.592Z,58.90
2018-03-08T05:03:30.207Z,58.80
2018-03-08T05:05:57.769Z,58.80
2018-03-08T05:08:25.343Z,58.70
2018-03-08T05:10:52.912Z,58.40
2018-03-08T05:13:20.579Z,58.40
2018-03-08T05:15:48.164Z,58.30
2018-03-08T05:18:15.897Z,58.20
2018-03-08T05:20:43.459Z,58.10
2018-03-08T05:23:11.021Z,58.20
2018-03-08T05:25:38.575Z,58.20
2018-03-08T05:28:06.159Z,58.20
2018-03-08T05:30:33.718Z,58.10
2018-03-08T05:33:01.289Z,58.10
2018-03-08T05:35:28.877Z,58.20
2018-03-08T05:37:56.450Z,58.20
2018-03-08T05:40:24.048Z,58.00
2018-03-08T05:42:51.641Z,57.90
2018-03-08T05:45:19.211Z,57.70
2018-03-08T05:47:46.777Z,57.90
2018-03-08T05:50:14.537Z,57.90
2018-03-08T05:52:42.135Z,58.00
2018-03-08T05:55:09.709Z,55.00
2018-03-08T05:57:37.272Z,52.30
2018-03-08T06:00:04.845Z,53.30
2018-03-08T06:02:32.594Z,55.20
2018-03-08T06:05:00.211Z,55.20
2018-03-08T06:07:27.781Z,55.10
2018-03-08T06:09:55.338Z,55.00
2018-03-08T06:12:22.915Z,54.90
2018-03-08T06:14:51.251Z,55.50
2018-03-08T06:17:18.838Z,54.90
2018-03-08T06:19:46.408Z,54.70
2018-03-08T06:22:13.995Z,54.50
2018-03-08T06:24:41.556Z,54.40
2018-03-08T06:27:09.336Z,55.00
2018-03-08T06:29:37.681Z,54.40
2018-03-08T06:32:05.254Z,54.40
2018-03-08T06:34:33.583Z,54.40
2018-03-08T06:37:01.153Z,54.40
2018-03-08T06:39:28.729Z,54.50
2018-03-08T06:41:56.692Z,54.60
2018-03-08T06:44:24.303Z,54.50
2018-03-08T06:46:52.102Z,54.70
2018-03-08T06:49:19.680Z,54.70
2018-03-08T06:51:48.017Z,54.10
2018-03-08T06:54:15.592Z,54.00
2018-03-08T06:56:43.169Z,53.90
2018-03-08T06:59:10.731Z,53.80
2018-03-08T07:01:38.299Z,53.50
2018-03-08T07:04:05.857Z,53.40
2018-03-08T07:06:33.887Z,53.30
2018-03-08T07:09:01.456Z,53.00
2018-03-08T07:11:29.026Z,52.60
2018-03-08T07:13:56.601Z,52.40
2018-03-08T07:16:24.223Z,52.30
2018-03-08T07:18:51.835Z,52.10
2018-03-08T07:21:19.411Z,52.00
2018-03-08T07:23:46.978Z,51.90
2018-03-08T07:26:14.568Z,51.90
2018-03-08T07:28:42.139Z,52.00
2018-03-08T07:31:09.794Z,52.00
2018-03-08T07:33:37.368Z,52.40
2018-03-08T07:36:05.188Z,52.50
2018-03-08T07:38:32.960Z,52.50
2018-03-08T07:41:00.528Z,52.50
2018-03-08T07:43:28.390Z,52.50
2018-03-08T07:45:55.973Z,52.40
2018-03-08T07:48:23.537Z,52.10
2018-03-08T07:50:51.169Z,52.10
2018-03-08T07:53:19.514Z,51.90
2018-03-08T07:55:47.105Z,51.90
2018-03-08T07:58:14.686Z,51.80
2018-03-08T08:00:42.998Z,51.60
2018-03-08T08:03:10.561Z,51.60
2018-03-08T08:05:50.195Z,51.50
2018-03-08T08:08:29.698Z,51.20
2018-03-08T08:10:57.253Z,51.30
2018-03-08T08:13:24.922Z,51.10
2018-03-08T08:15:52.547Z,50.90
2018-03-08T08:18:20.061Z,50.80
2018-03-08T08:20:47.606Z,50.60
2018-03-08T08:23:15.179Z,50.70
2018-03-08T08:25:42.763Z,50.40
2018-03-08T08:28:10.328Z,46.20
2018-03-08T08:30:37.897Z,48.20
2018-03-08T08:33:05.467Z,49.70
2018-03-08T08:35:33.061Z,50.10
2018-03-08T08:38:00.644Z,50.20
2018-03-08T08:40:28.211Z,50.30
2018-03-08T08:42:55.773Z,50.20
2018-03-08T08:45:23.334Z,50.20
2018-03-08T08:47:50.898Z,50.30
2018-03-08T08:50:18.480Z,50.30
2018-03-08T08:52:46.078Z,50.30
2018-03-08T08:55:13.642Z,50.20
2018-03-08T08:57:41.303Z,50.00
2018-03-08T09:00:08.950Z,50.00
2018-03-08T09:02:36.535Z,50.10
2018-03-08T09:05:04.098Z,49.90
2018-03-08T09:07:31.723Z,49.80
2018-03-08T09:09:59.236Z,49.70
2018-03-08T09:12:26.806Z,49.60
2018-03-08T09:14:54.404Z,49.60
2018-03-08T09:17:22.731Z,49.70
2018-03-08T09:19:50.280Z,49.70
2018-03-08T09:22:17.828Z,49.70
2018-03-08T09:24:45.441Z,49.70
2018-03-08T09:27:13.080Z,49.70
2018-03-08T09:29:40.655Z,49.70
2018-03-08T09:32:08.330Z,49.80
2018-03-08T09:34:35.893Z,50.00
2018-03-08T09:37:03.602Z,50.20
2018-03-08T09:39:31.186Z,50.10
2018-03-08T09:41:59.593Z,50.20
2018-03-08T09:44:27.227Z,50.20
2018-03-08T09:46:55.560Z,50.70
2018-03-08T09:49:23.218Z,50.10
2018-03-08T09:51:50.878Z,49.90
2018-03-08T09:54:18.404Z,50.00
2018-03-08T09:56:45.983Z,49.90
2018-03-08T09:59:14.305Z,50.30
2018-03-08T10:01:41.872Z,49.80
2018-03-08T10:04:09.559Z,49.70
2018-03-08T10:06:37.120Z,49.60
2018-03-08T10:09:04.710Z,49.40
2018-03-08T10:11:32.279Z,49.60
2018-03-08T10:13:59.888Z,49.40
2018-03-08T10:16:27.474Z,49.30
2018-03-08T10:18:55.059Z,49.20
2018-03-08T10:21:44.276Z,49.10
2018-03-08T10:23:50.202Z,49.00
2018-03-08T10:26:19.289Z,49.00
2018-03-08T10:28:46.876Z,48.90
2018-03-08T10:31:14.422Z,49.00
2018-03-08T10:33:42.001Z,49.00
2018-03-08T10:36:09.572Z,49.00
2018-03-08T10:38:37.124Z,49.20
2018-03-08T10:41:04.769Z,49.00
2018-03-08T10:43:33.063Z,49.20
2018-03-08T10:46:00.638Z,49.30
2018-03-08T10:48:28.193Z,49.10
2018-03-08T10:50:55.778Z,49.00
2018-03-08T10:53:23.371Z,49.20
2018-03-08T10:55:51.791Z,49.20
2018-03-08T10:58:19.370Z,49.20
2018-03-08T11:00:46.966Z,49.50
2018-03-08T11:03:14.532Z,49.60
2018-03-08T11:05:46.750Z,49.60
2018-03-08T11:08:14.408Z,49.70
2018-03-08T11:10:43.005Z,49.50
2018-03-08T11:13:10.776Z,49.50
2018-03-08T11:15:38.322Z,49.30
2018-03-08T11:18:06.658Z,49.00
2018-03-08T11:20:34.211Z,48.90
2018-03-08T11:23:01.824Z,48.70
2018-03-08T11:25:29.524Z,48.60
2018-03-08T11:27:57.091Z,48.90
2018-03-08T11:30:25.163Z,48.60
2018-03-08T11:32:53.489Z,48.50
2018-03-08T11:35:21.070Z,48.50
2018-03-08T11:37:48.630Z,48.30
2018-03-08T11:40:16.213Z,48.40
2018-03-08T11:42:44.541Z,48.80
2018-03-08T11:45:12.096Z,48.80
2018-03-08T11:47:39.669Z,48.60
2018-03-08T11:50:07.239Z,48.60
2018-03-08T11:52:34.871Z,48.60
2018-03-08T11:55:03.208Z,48.50
2018-03-08T11:57:30.761Z,48.50
2018-03-08T11:59:58.338Z,49.20
2018-03-08T12:02:25.928Z,48.50
2018-03-08T12:04:53.499Z,48.70
2018-03-08T12:07:21.061Z,48.80
2018-03-08T12:09:48.608Z,48.70
2018-03-08T12:12:16.191Z,48.60
2018-03-08T12:14:43.747Z,48.70
2018-03-08T12:17:11.322Z,48.80
2018-03-08T12:19:38.937Z,48.80
2018-03-08T12:22:06.497Z,48.70
2018-03-08T12:24:34.108Z,48.70
2018-03-08T12:27:01.673Z,48.90
2018-03-08T12:29:29.254Z,49.00
2018-03-08T12:31:56.811Z,49.10
2018-03-08T12:34:24.391Z,49.40
2018-03-08T12:36:53.487Z,49.30
2018-03-08T12:39:21.053Z,49.30
2018-03-08T12:41:48.638Z,49.10
2018-03-08T12:44:16.974Z,47.90
2018-03-08T12:46:44.540Z,47.90
2018-03-08T12:49:12.129Z,45.60
2018-03-08T12:51:39.705Z,46.60
2018-03-08T12:54:07.264Z,47.80
2018-03-08T12:56:34.821Z,48.10
2018-03-08T12:59:02.379Z,48.40
2018-03-08T13:01:30.058Z,48.70
2018-03-08T13:03:57.612Z,48.60
2018-03-08T13:06:25.190Z,48.60
2018-03-08T13:08:52.750Z,48.60
2018-03-08T13:11:20.308Z,48.50
2018-03-08T13:13:47.891Z,48.40
2018-03-08T13:16:16.218Z,48.30
2018-03-08T13:18:43.926Z,48.30
2018-03-08T13:21:11.506Z,48.40
2018-03-08T13:23:39.054Z,48.20
2018-03-08T13:26:06.684Z,48.40
2018-03-08T13:28:34.332Z,48.20
2018-03-08T13:31:02.643Z,48.10
2018-03-08T13:33:30.178Z,48.10
2018-03-08T13:35:58.497Z,48.20
2018-03-08T13:38:26.084Z,48.10
2018-03-08T13:40:53.703Z,48.10
2018-03-08T13:43:21.258Z,48.00
2018-03-08T13:45:49.589Z,48.60
2018-03-08T13:48:17.165Z,47.80
2018-03-08T13:50:44.736Z,47.80
2018-03-08T13:53:12.284Z,47.70
2018-03-08T13:55:39.892Z,48.20
2018-03-08T13:58:07.434Z,48.40
2018-03-08T14:00:35.006Z,48.90
2018-03-08T14:03:02.605Z,49.20
2018-03-08T14:05:30.991Z,48.90
2018-03-08T14:07:59.346Z,48.50
2018-03-08T14:10:26.921Z,48.50
2018-03-08T14:12:54.502Z,48.50
2018-03-08T14:15:22.830Z,48.70
2018-03-08T14:17:50.402Z,48.70
2018-03-08T14:20:18.059Z,48.90
2018-03-08T14:22:45.706Z,48.90
2018-03-08T14:25:13.447Z,48.80
2018-03-08T14:27:41.062Z,48.70
2018-03-08T14:30:08.616Z,48.60
2018-03-08T14:32:36.203Z,48.60
2018-03-08T14:35:03.768Z,48.80
2018-03-08T14:37:31.350Z,48.70
2018-03-08T14:39:58.913Z,48.80
2018-03-08T14:42:26.494Z,49.10
2018-03-08T14:44:54.099Z,48.90
2018-03-08T14:47:22.421Z,48.70
2018-03-08T14:49:49.993Z,48.70
2018-03-08T14:52:17.564Z,48.70
2018-03-08T14:54:45.134Z,48.50
2018-03-08T14:57:12.713Z,48.30
2018-03-08T14:59:40.261Z,48.30
2018-03-08T15:02:07.937Z,48.60
2018-03-08T15:04:35.488Z,48.50
2018-03-08T15:07:03.133Z,48.40
2018-03-08T15:09:30.737Z,48.40
2018-03-08T15:11:58.306Z,48.40
2018-03-08T15:14:25.881Z,48.40
2018-03-08T15:16:53.468Z,48.20
2018-03-08T15:19:21.791Z,48.20
2018-03-08T15:21:49.378Z,48.20
2018-03-08T15:24:16.940Z,46.10
2018-03-08T15:26:44.515Z,43.20
2018-03-08T15:29:12.096Z,44.00
2018-03-08T15:31:39.659Z,46.10
2018-03-08T15:34:07.294Z,46.80
2018-03-08T15:36:34.860Z,47.30
2018-03-08T15:39:02.415Z,44.40
2018-03-08T15:41:30.051Z,42.30
2018-03-08T15:43:58.392Z,46.30
2018-03-08T15:46:25.969Z,46.40
2018-03-08T15:48:53.581Z,46.70
2018-03-08T15:51:21.138Z,46.70
2018-03-08T15:53:48.699Z,47.10
2018-03-08T15:56:17.099Z,47.50
2018-03-08T15:58:44.701Z,47.50
2018-03-08T16:01:12.276Z,47.50
2018-03-08T16:03:39.845Z,47.60
2018-03-08T16:06:07.433Z,47.50
2018-03-08T16:08:47.726Z,47.80
2018-03-08T16:11:15.299Z,47.90
2018-03-08T16:13:42.848Z,48.50
2018-03-08T16:16:10.454Z,48.60
2018-03-08T16:18:38.047Z,48.70
2018-03-08T16:21:05.603Z,48.80
2018-03-08T16:23:33.258Z,48.90
2018-03-08T16:26:00.848Z,49.00
2018-03-08T16:28:28.748Z,49.10
2018-03-08T16:30:56.323Z,48.40
2018-03-08T16:33:23.889Z,48.50
2018-03-08T16:35:51.496Z,46.50
2018-03-08T16:38:19.052Z,46.10
2018-03-08T16:40:46.667Z,48.00
2018-03-08T16:43:15.024Z,49.10
2018-03-08T16:45:42.598Z,49.10
2018-03-08T16:48:10.176Z,49.60
2018-03-08T16:50:38.511Z,49.60
2018-03-08T16:53:06.099Z,49.60
2018-03-08T16:55:35.174Z,49.90
2018-03-08T16:58:02.738Z,49.90
2018-03-08T17:00:30.297Z,49.80
2018-03-08T17:02:57.909Z,49.90
2018-03-08T17:05:25.513Z,49.90
2018-03-08T17:07:53.075Z,50.00
2018-03-08T17:10:20.801Z,49.80
2018-03-08T17:12:48.376Z,49.80
2018-03-08T17:15:15.940Z,49.60
2018-03-08T17:17:44.328Z,48.90
2018-03-08T17:20:11.924Z,48.90
2018-03-08T17:22:39.500Z,49.40
2018-03-08T17:25:07.122Z,49.60
2018-03-08T17:27:34.769Z,49.50
2018-03-08T17:30:02.444Z,50.00
2018-03-08T17:32:30.115Z,50.10
2018-03-08T17:34:57.687Z,50.00
2018-03-08T17:37:25.247Z,46.80
2018-03-08T17:39:52.807Z,48.00
2018-03-08T17:42:20.429Z,49.20
2018-03-08T17:44:48.031Z,50.10
2018-03-08T17:47:15.609Z,50.40
2018-03-08T17:49:43.211Z,50.60
2018-03-08T17:52:11.548Z,50.70
2018-03-08T17:54:39.136Z,50.70
2018-03-08T17:57:06.706Z,50.60
2018-03-08T17:59:34.290Z,50.80
2018-03-08T18:02:02.615Z,51.70
2018-03-08T18:04:30.187Z,51.70
2018-03-08T18:06:57.790Z,52.30
2018-03-08T18:09:25.361Z,51.50
2018-03-08T18:11:53.776Z,52.50
2018-03-08T18:14:21.334Z,51.80
2018-03-08T18:16:49.072Z,51.70
2018-03-08T18:19:16.657Z,51.60
2018-03-08T18:21:45.027Z,51.10
2018-03-08T18:24:12.605Z,51.10
2018-03-08T18:26:40.966Z,50.80
2018-03-08T18:29:08.523Z,50.80
2018-03-08T18:31:37.138Z,51.00
2018-03-08T18:34:04.749Z,51.10
2018-03-08T18:36:32.361Z,51.00
2018-03-08T18:38:59.926Z,51.00
2018-03-08T18:41:27.638Z,51.00
2018-03-08T18:43:55.239Z,50.90
2018-03-08T18:46:22.831Z,50.70
2018-03-08T18:48:50.454Z,50.50
2018-03-08T18:51:18.041Z,50.30
2018-03-08T18:53:45.641Z,50.10
2018-03-08T18:56:13.533Z,49.80
2018-03-08T18:58:41.174Z,49.60
2018-03-08T19:01:08.786Z,49.60
2018-03-08T19:03:36.433Z,49.70
2018-03-08T19:06:04.879Z,50.20
2018-03-08T19:08:32.511Z,50.30
2018-03-08T19:11:00.118Z,50.10
2018-03-08T19:13:27.738Z,50.40
2018-03-08T19:15:55.341Z,50.80
2018-03-08T19:18:22.936Z,50.90
2018-03-08T19:20:51.306Z,51.20
2018-03-08T19:23:18.940Z,51.20
2018-03-08T19:25:46.516Z,51.20
2018-03-08T19:28:14.099Z,51.20
2018-03-08T19:30:41.700Z,51.30
2018-03-08T19:33:10.141Z,49.50
2018-03-08T19:35:37.779Z,49.50
2018-03-08T19:38:05.425Z,46.90
2018-03-08T19:40:33.089Z,48.70
2018-03-08T19:43:01.451Z,49.60
2018-03-08T19:45:29.907Z,49.50
2018-03-08T19:47:57.551Z,49.70
2018-03-08T19:50:25.189Z,49.80
2018-03-08T19:52:53.645Z,50.30
2018-03-08T19:55:22.049Z,49.90
2018-03-08T19:57:50.592Z,50.00
2018-03-08T20:00:18.218Z,50.00
2018-03-08T20:02:46.656Z,50.10
2018-03-08T20:05:14.335Z,50.10
2018-03-08T20:07:42.376Z,50.20
2018-03-08T20:10:10.256Z,50.40
2018-03-08T20:12:37.859Z,50.30
2018-03-08T20:15:05.534Z,50.30
2018-03-08T20:17:33.964Z,50.20
2018-03-08T20:20:01.564Z,50.20
2018-03-08T20:22:29.186Z,50.10
2018-03-08T20:24:56.765Z,50.20
2018-03-08T20:27:24.357Z,50.20
2018-03-08T20:29:51.965Z,50.20
2018-03-08T20:32:19.654Z,50.20
2018-03-08T20:34:47.376Z,50.30
2018-03-08T20:37:14.948Z,50.50
2018-03-08T20:39:42.527Z,50.50
2018-03-08T20:42:10.920Z,50.50
2018-03-08T20:44:39.259Z,50.50
2018-03-08T20:47:06.904Z,50.50
2018-03-08T20:49:34.454Z,50.20
2018-03-08T20:52:02.235Z,50.10
2018-03-08T20:54:29.800Z,50.10
2018-03-08T20:56:57.410Z,50.10
2018-03-08T20:59:25.003Z,50.20
2018-03-08T21:01:53.345Z,50.30
2018-03-08T21:04:21.057Z,50.30
2018-03-08T21:06:49.396Z,50.50
2018-03-08T21:09:17.030Z,50.50
2018-03-08T21:11:44.644Z,51.10
2018-03-08T21:14:12.283Z,51.40
2018-03-08T21:16:39.872Z,51.60
2018-03-08T21:19:07.451Z,51.60
2018-03-08T21:21:35.051Z,51.80
2018-03-08T21:24:02.888Z,52.00
2018-03-08T21:26:30.465Z,52.10
2018-03-08T21:28:58.122Z,52.40
2018-03-08T21:31:25.685Z,53.30
2018-03-08T21:33:53.270Z,52.80
2018-03-08T21:36:20.892Z,53.00
2018-03-08T21:38:48.463Z,53.20
2018-03-08T21:41:16.137Z,53.20
2018-03-08T21:43:43.715Z,53.50
2018-03-08T21:46:11.267Z,53.60
2018-03-08T21:48:38.869Z,53.70
2018-03-08T21:51:06.504Z,53.80
2018-03-08T21:53:34.070Z,53.90
2018-03-08T21:56:01.654Z,54.10
2018-03-08T21:58:29.228Z,54.20
2018-03-08T22:00:56.809Z,54.30
2018-03-08T22:03:25.152Z,54.90
2018-03-08T22:05:52.723Z,54.90
2018-03-08T22:08:20.299Z,55.40
2018-03-08T22:10:48.588Z,55.40
2018-03-08T22:13:16.223Z,55.50
2018-03-08T22:15:43.753Z,56.20
2018-03-08T22:18:11.307Z,55.70
2018-03-08T22:20:38.882Z,55.60
2018-03-08T22:23:07.433Z,55.60
2018-03-08T22:25:35.007Z,55.60
2018-03-08T22:28:03.334Z,55.20
2018-03-08T22:30:30.966Z,55.70
2018-03-08T22:32:58.494Z,55.70
2018-03-08T22:35:26.302Z,55.80
2018-03-08T22:37:54.662Z,56.80
2018-03-08T22:40:22.285Z,56.20
2018-03-08T22:42:49.839Z,56.20
2018-03-08T22:45:17.405Z,56.20
2018-03-08T22:47:45.039Z,56.20
2018-03-08T22:50:13.398Z,56.20
2018-03-08T22:52:40.962Z,56.20
2018-03-08T22:55:08.525Z,56.20
2018-03-08T22:57:36.260Z,57.00
2018-03-08T23:00:03.796Z,56.60
2018-03-08T23:02:33.961Z,56.80
2018-03-08T23:05:01.601Z,56.70
2018-03-08T23:07:29.932Z,56.90
2018-03-08T23:09:57.667Z,56.90
2018-03-08T23:12:25.247Z,57.00
2018-03-08T23:14:53.018Z,57.20
2018-03-08T23:17:20.581Z,57.10
2018-03-08T23:19:48.142Z,57.20
2018-03-08T23:22:15.712Z,57.30
2018-03-08T23:24:43.317Z,57.30
2018-03-08T23:27:10.886Z,57.40
2018-03-08T23:29:38.460Z,57.70
2018-03-08T23:32:06.003Z,57.50
2018-03-08T23:34:33.582Z,57.40
2018-03-08T23:37:01.162Z,57.30
2018-03-08T23:39:28.741Z,57.40
2018-03-08T23:41:57.062Z,57.60
2018-03-08T23:44:25.400Z,57.60
2018-03-08T23:46:52.949Z,57.60
2018-03-08T23:49:20.541Z,57.70
2018-03-08T23:51:48.858Z,57.80
2018-03-08T23:54:16.431Z,57.80
2018-03-08T23:56:43.993Z,57.80
2018-03-08T23:59:11.637Z,58.00
